sensor_id;sensor_type;location;lat;lon;timestamp;P1;durP1;ratioP1;P2;durP2;ratioP2
69047;SDS011;56119;50.118;8.642;2024-02-21T00:01:42;16.35;;;6.78;;
69047;SDS011;56119;50.118;8.642;2024-02-21T00:04:08;16.67;;;6.88;;
69047;SDS011;56119;50.118;8.642;2024-02-21T00:06:34;16.48;;;6.50;;
69047;SDS011;56119;50.118;8.642;2024-02-21T00:09:00;19.48;;;7.13;;
69047;SDS011;56119;50.118;8.642;2024-02-21T00:11:26;21.85;;;7.47;;
69047;SDS011;56119;50.118;8.642;2024-02-21T00:13:52;17.23;;;6.60;;
69047;SDS011;56119;50.118;8.642;2024-02-21T00:16:18;15.77;;;6.53;;
69047;SDS011;56119;50.118;8.642;2024-02-21T00:18:44;18.85;;;7.05;;
69047;SDS011;56119;50.118;8.642;2024-02-21T00:21:10;16.63;;;7.82;;
69047;SDS011;56119;50.118;8.642;2024-02-21T00:23:42;20.42;;;8.38;;
69047;SDS011;56119;50.118;8.642;2024-02-21T00:26:08;19.85;;;7.88;;
69047;SDS011;56119;50.118;8.642;2024-02-21T00:28:34;21.98;;;7.85;;
69047;SDS011;56119;50.118;8.642;2024-02-21T00:31:00;18.13;;;7.78;;
69047;SDS011;56119;50.118;8.642;2024-02-21T00:33:26;21.70;;;8.48;;
69047;SDS011;56119;50.118;8.642;2024-02-21T00:35:52;17.13;;;7.60;;
69047;SDS011;56119;50.118;8.642;2024-02-21T00:38:18;21.27;;;8.93;;
69047;SDS011;56119;50.118;8.642;2024-02-21T00:40:44;18.90;;;8.27;;
69047;SDS011;56119;50.118;8.642;2024-02-21T00:43:10;20.30;;;8.32;;
69047;SDS011;56119;50.118;8.642;2024-02-21T00:45:36;19.85;;;8.57;;
69047;SDS011;56119;50.118;8.642;2024-02-21T00:48:02;20.48;;;8.43;;
69047;SDS011;56119;50.118;8.642;2024-02-21T00:50:28;17.13;;;8.80;;
69047;SDS011;56119;50.118;8.642;2024-02-21T00:52:54;28.98;;;9.00;;
69047;SDS011;56119;50.118;8.642;2024-02-21T00:55:20;18.10;;;8.93;;
69047;SDS011;56119;50.118;8.642;2024-02-21T00:57:46;19.02;;;8.82;;
69047;SDS011;56119;50.118;8.642;2024-02-21T01:00:12;21.92;;;9.32;;
69047;SDS011;56119;50.118;8.642;2024-02-21T01:02:39;18.33;;;8.82;;
69047;SDS011;56119;50.118;8.642;2024-02-21T01:05:05;23.13;;;9.23;;
69047;SDS011;56119;50.118;8.642;2024-02-21T01:07:31;24.08;;;9.45;;
69047;SDS011;56119;50.118;8.642;2024-02-21T01:09:57;22.50;;;9.98;;
69047;SDS011;56119;50.118;8.642;2024-02-21T01:12:23;21.25;;;9.55;;
69047;SDS011;56119;50.118;8.642;2024-02-21T01:14:49;24.10;;;10.27;;
69047;SDS011;56119;50.118;8.642;2024-02-21T01:17:15;18.48;;;9.68;;
69047;SDS011;56119;50.118;8.642;2024-02-21T01:19:41;20.95;;;9.73;;
69047;SDS011;56119;50.118;8.642;2024-02-21T01:22:06;26.08;;;10.18;;
69047;SDS011;56119;50.118;8.642;2024-02-21T01:24:33;22.27;;;11.07;;
69047;SDS011;56119;50.118;8.642;2024-02-21T01:26:59;21.20;;;9.02;;
69047;SDS011;56119;50.118;8.642;2024-02-21T01:29:25;19.95;;;9.45;;
69047;SDS011;56119;50.118;8.642;2024-02-21T01:31:50;21.20;;;9.55;;
69047;SDS011;56119;50.118;8.642;2024-02-21T01:34:16;23.48;;;10.00;;
69047;SDS011;56119;50.118;8.642;2024-02-21T01:36:42;19.02;;;10.02;;
69047;SDS011;56119;50.118;8.642;2024-02-21T01:39:08;19.65;;;9.70;;
69047;SDS011;56119;50.118;8.642;2024-02-21T01:41:34;21.50;;;10.27;;
69047;SDS011;56119;50.118;8.642;2024-02-21T01:44:00;22.02;;;9.88;;
69047;SDS011;56119;50.118;8.642;2024-02-21T01:46:26;20.05;;;10.20;;
69047;SDS011;56119;50.118;8.642;2024-02-21T01:48:56;19.88;;;9.93;;
69047;SDS011;56119;50.118;8.642;2024-02-21T01:51:23;18.88;;;9.73;;
69047;SDS011;56119;50.118;8.642;2024-02-21T01:53:49;20.50;;;9.65;;
69047;SDS011;56119;50.118;8.642;2024-02-21T01:56:16;24.80;;;10.75;;
69047;SDS011;56119;50.118;8.642;2024-02-21T01:58:42;22.10;;;9.77;;
69047;SDS011;56119;50.118;8.642;2024-02-21T02:01:08;17.42;;;9.52;;
69047;SDS011;56119;50.118;8.642;2024-02-21T02:03:35;16.40;;;9.05;;
69047;SDS011;56119;50.118;8.642;2024-02-21T02:06:01;20.73;;;9.70;;
69047;SDS011;56119;50.118;8.642;2024-02-21T02:08:27;16.75;;;9.20;;
69047;SDS011;56119;50.118;8.642;2024-02-21T02:10:53;18.42;;;8.63;;
69047;SDS011;56119;50.118;8.642;2024-02-21T02:13:20;17.55;;;8.70;;
69047;SDS011;56119;50.118;8.642;2024-02-21T02:15:46;16.85;;;8.90;;
69047;SDS011;56119;50.118;8.642;2024-02-21T02:18:13;14.18;;;8.15;;
69047;SDS011;56119;50.118;8.642;2024-02-21T02:20:39;17.75;;;8.52;;
69047;SDS011;56119;50.118;8.642;2024-02-21T02:23:22;15.57;;;9.05;;
69047;SDS011;56119;50.118;8.642;2024-02-21T02:25:48;21.05;;;9.77;;
69047;SDS011;56119;50.118;8.642;2024-02-21T02:28:16;16.95;;;9.38;;
69047;SDS011;56119;50.118;8.642;2024-02-21T02:30:42;19.60;;;9.30;;
69047;SDS011;56119;50.118;8.642;2024-02-21T02:33:08;18.98;;;8.38;;
69047;SDS011;56119;50.118;8.642;2024-02-21T02:35:34;14.00;;;8.43;;
69047;SDS011;56119;50.118;8.642;2024-02-21T02:38:03;19.65;;;9.05;;
69047;SDS011;56119;50.118;8.642;2024-02-21T02:40:29;19.40;;;9.63;;
69047;SDS011;56119;50.118;8.642;2024-02-21T02:42:55;18.23;;;8.82;;
69047;SDS011;56119;50.118;8.642;2024-02-21T02:45:21;18.17;;;8.95;;
69047;SDS011;56119;50.118;8.642;2024-02-21T02:47:51;18.80;;;8.60;;
69047;SDS011;56119;50.118;8.642;2024-02-21T02:50:19;17.50;;;8.27;;
69047;SDS011;56119;50.118;8.642;2024-02-21T02:52:45;15.75;;;7.72;;
69047;SDS011;56119;50.118;8.642;2024-02-21T02:55:11;16.35;;;8.40;;
69047;SDS011;56119;50.118;8.642;2024-02-21T02:57:37;17.77;;;8.10;;
69047;SDS011;56119;50.118;8.642;2024-02-21T03:00:04;20.00;;;7.80;;
69047;SDS011;56119;50.118;8.642;2024-02-21T03:02:31;12.02;;;8.38;;
69047;SDS011;56119;50.118;8.642;2024-02-21T03:04:57;18.42;;;8.60;;
69047;SDS011;56119;50.118;8.642;2024-02-21T03:07:24;19.17;;;8.50;;
69047;SDS011;56119;50.118;8.642;2024-02-21T03:09:50;21.58;;;8.48;;
69047;SDS011;56119;50.118;8.642;2024-02-21T03:12:16;15.02;;;8.70;;
69047;SDS011;56119;50.118;8.642;2024-02-21T03:14:52;14.57;;;8.27;;
69047;SDS011;56119;50.118;8.642;2024-02-21T03:17:18;16.45;;;8.48;;
69047;SDS011;56119;50.118;8.642;2024-02-21T03:19:44;16.88;;;7.93;;
69047;SDS011;56119;50.118;8.642;2024-02-21T03:22:10;21.30;;;9.15;;
69047;SDS011;56119;50.118;8.642;2024-02-21T03:24:36;17.13;;;7.95;;
69047;SDS011;56119;50.118;8.642;2024-02-21T03:27:02;15.82;;;8.30;;
69047;SDS011;56119;50.118;8.642;2024-02-21T03:29:28;18.90;;;7.80;;
69047;SDS011;56119;50.118;8.642;2024-02-21T03:31:54;18.75;;;8.73;;
69047;SDS011;56119;50.118;8.642;2024-02-21T03:34:20;15.63;;;8.43;;
69047;SDS011;56119;50.118;8.642;2024-02-21T03:36:46;18.65;;;8.77;;
69047;SDS011;56119;50.118;8.642;2024-02-21T03:39:12;15.50;;;8.52;;
69047;SDS011;56119;50.118;8.642;2024-02-21T03:41:38;14.63;;;8.57;;
69047;SDS011;56119;50.118;8.642;2024-02-21T03:44:04;17.65;;;9.02;;
69047;SDS011;56119;50.118;8.642;2024-02-21T03:46:30;18.40;;;8.82;;
69047;SDS011;56119;50.118;8.642;2024-02-21T03:48:56;17.17;;;9.35;;
69047;SDS011;56119;50.118;8.642;2024-02-21T03:51:22;15.55;;;9.07;;
69047;SDS011;56119;50.118;8.642;2024-02-21T03:53:49;20.00;;;9.75;;
69047;SDS011;56119;50.118;8.642;2024-02-21T03:56:15;18.27;;;9.85;;
69047;SDS011;56119;50.118;8.642;2024-02-21T03:58:41;23.10;;;11.18;;
69047;SDS011;56119;50.118;8.642;2024-02-21T04:01:07;22.50;;;10.63;;
69047;SDS011;56119;50.118;8.642;2024-02-21T04:03:33;21.98;;;11.68;;
69047;SDS011;56119;50.118;8.642;2024-02-21T04:05:59;24.52;;;11.38;;
69047;SDS011;56119;50.118;8.642;2024-02-21T04:08:25;20.00;;;12.10;;
69047;SDS011;56119;50.118;8.642;2024-02-21T04:10:51;21.60;;;11.88;;
69047;SDS011;56119;50.118;8.642;2024-02-21T04:13:17;21.83;;;11.13;;
69047;SDS011;56119;50.118;8.642;2024-02-21T04:15:43;21.58;;;11.50;;
69047;SDS011;56119;50.118;8.642;2024-02-21T04:18:09;22.00;;;11.63;;
69047;SDS011;56119;50.118;8.642;2024-02-21T04:20:35;18.98;;;11.27;;
69047;SDS011;56119;50.118;8.642;2024-02-21T04:23:01;22.02;;;11.68;;
69047;SDS011;56119;50.118;8.642;2024-02-21T04:25:27;26.13;;;11.75;;
69047;SDS011;56119;50.118;8.642;2024-02-21T04:27:53;25.48;;;11.73;;
69047;SDS011;56119;50.118;8.642;2024-02-21T04:30:19;21.02;;;11.45;;
69047;SDS011;56119;50.118;8.642;2024-02-21T04:32:45;21.30;;;11.55;;
69047;SDS011;56119;50.118;8.642;2024-02-21T04:35:11;23.67;;;10.20;;
69047;SDS011;56119;50.118;8.642;2024-02-21T04:37:37;22.42;;;11.77;;
69047;SDS011;56119;50.118;8.642;2024-02-21T04:40:03;24.48;;;11.77;;
69047;SDS011;56119;50.118;8.642;2024-02-21T04:42:29;23.80;;;12.30;;
69047;SDS011;56119;50.118;8.642;2024-02-21T04:44:55;21.45;;;11.40;;
69047;SDS011;56119;50.118;8.642;2024-02-21T04:47:21;22.58;;;11.73;;
69047;SDS011;56119;50.118;8.642;2024-02-21T04:49:48;23.35;;;11.73;;
69047;SDS011;56119;50.118;8.642;2024-02-21T04:52:14;22.02;;;11.85;;
69047;SDS011;56119;50.118;8.642;2024-02-21T04:54:40;21.63;;;11.13;;
69047;SDS011;56119;50.118;8.642;2024-02-21T04:57:06;21.52;;;11.20;;
69047;SDS011;56119;50.118;8.642;2024-02-21T04:59:32;19.98;;;10.52;;
69047;SDS011;56119;50.118;8.642;2024-02-21T05:02:00;22.92;;;11.75;;
69047;SDS011;56119;50.118;8.642;2024-02-21T05:04:26;20.40;;;11.02;;
69047;SDS011;56119;50.118;8.642;2024-02-21T05:06:51;22.95;;;11.27;;
69047;SDS011;56119;50.118;8.642;2024-02-21T05:09:17;18.08;;;10.60;;
69047;SDS011;56119;50.118;8.642;2024-02-21T05:11:43;18.88;;;10.48;;
69047;SDS011;56119;50.118;8.642;2024-02-21T05:14:09;25.15;;;10.55;;
69047;SDS011;56119;50.118;8.642;2024-02-21T05:16:35;18.55;;;9.98;;
69047;SDS011;56119;50.118;8.642;2024-02-21T05:19:01;23.00;;;11.07;;
69047;SDS011;56119;50.118;8.642;2024-02-21T05:21:29;17.48;;;10.70;;
69047;SDS011;56119;50.118;8.642;2024-02-21T05:23:55;19.85;;;10.43;;
69047;SDS011;56119;50.118;8.642;2024-02-21T05:26:21;20.55;;;11.23;;
69047;SDS011;56119;50.118;8.642;2024-02-21T05:28:47;21.15;;;11.07;;
69047;SDS011;56119;50.118;8.642;2024-02-21T05:31:15;20.30;;;10.77;;
69047;SDS011;56119;50.118;8.642;2024-02-21T05:33:41;21.38;;;10.57;;
69047;SDS011;56119;50.118;8.642;2024-02-21T05:36:07;21.00;;;10.65;;
69047;SDS011;56119;50.118;8.642;2024-02-21T05:38:33;22.35;;;11.52;;
69047;SDS011;56119;50.118;8.642;2024-02-21T05:41:00;19.40;;;11.05;;
69047;SDS011;56119;50.118;8.642;2024-02-21T05:43:26;21.58;;;10.43;;
69047;SDS011;56119;50.118;8.642;2024-02-21T05:45:52;21.92;;;10.68;;
69047;SDS011;56119;50.118;8.642;2024-02-21T05:48:18;22.40;;;11.70;;
69047;SDS011;56119;50.118;8.642;2024-02-21T05:50:44;18.45;;;9.88;;
69047;SDS011;56119;50.118;8.642;2024-02-21T05:53:10;18.55;;;11.05;;
69047;SDS011;56119;50.118;8.642;2024-02-21T05:55:36;22.50;;;10.05;;
69047;SDS011;56119;50.118;8.642;2024-02-21T05:58:02;17.02;;;9.90;;
69047;SDS011;56119;50.118;8.642;2024-02-21T06:00:28;21.98;;;10.43;;
69047;SDS011;56119;50.118;8.642;2024-02-21T06:02:54;19.17;;;10.65;;
69047;SDS011;56119;50.118;8.642;2024-02-21T06:05:20;15.60;;;8.27;;
69047;SDS011;56119;50.118;8.642;2024-02-21T06:07:46;20.00;;;10.75;;
69047;SDS011;56119;50.118;8.642;2024-02-21T06:10:12;23.42;;;11.23;;
69047;SDS011;56119;50.118;8.642;2024-02-21T06:12:38;16.88;;;11.25;;
69047;SDS011;56119;50.118;8.642;2024-02-21T06:15:04;18.77;;;10.80;;
69047;SDS011;56119;50.118;8.642;2024-02-21T06:17:31;18.35;;;11.00;;
69047;SDS011;56119;50.118;8.642;2024-02-21T06:19:57;25.73;;;11.38;;
69047;SDS011;56119;50.118;8.642;2024-02-21T06:22:23;18.80;;;10.35;;
69047;SDS011;56119;50.118;8.642;2024-02-21T06:24:49;26.10;;;11.65;;
69047;SDS011;56119;50.118;8.642;2024-02-21T06:27:15;25.00;;;11.25;;
69047;SDS011;56119;50.118;8.642;2024-02-21T06:29:42;20.80;;;11.00;;
69047;SDS011;56119;50.118;8.642;2024-02-21T06:32:08;20.20;;;11.50;;
69047;SDS011;56119;50.118;8.642;2024-02-21T06:34:34;19.67;;;11.23;;
69047;SDS011;56119;50.118;8.642;2024-02-21T06:37:00;23.15;;;11.50;;
69047;SDS011;56119;50.118;8.642;2024-02-21T06:39:26;23.33;;;11.50;;
69047;SDS011;56119;50.118;8.642;2024-02-21T06:41:53;26.10;;;11.45;;
69047;SDS011;56119;50.118;8.642;2024-02-21T06:44:21;17.63;;;10.82;;
69047;SDS011;56119;50.118;8.642;2024-02-21T06:46:47;23.38;;;11.10;;
69047;SDS011;56119;50.118;8.642;2024-02-21T06:49:13;19.95;;;12.30;;
69047;SDS011;56119;50.118;8.642;2024-02-21T06:51:42;20.30;;;12.45;;
69047;SDS011;56119;50.118;8.642;2024-02-21T06:54:08;26.20;;;12.68;;
69047;SDS011;56119;50.118;8.642;2024-02-21T06:56:39;26.52;;;12.18;;
69047;SDS011;56119;50.118;8.642;2024-02-21T06:59:05;21.15;;;12.00;;
69047;SDS011;56119;50.118;8.642;2024-02-21T07:01:31;20.17;;;12.00;;
69047;SDS011;56119;50.118;8.642;2024-02-21T07:03:57;21.33;;;11.18;;
69047;SDS011;56119;50.118;8.642;2024-02-21T07:06:23;23.77;;;12.10;;
69047;SDS011;56119;50.118;8.642;2024-02-21T07:08:49;23.25;;;12.50;;
69047;SDS011;56119;50.118;8.642;2024-02-21T07:11:16;21.63;;;11.85;;
69047;SDS011;56119;50.118;8.642;2024-02-21T07:13:42;24.08;;;13.57;;
69047;SDS011;56119;50.118;8.642;2024-02-21T07:16:08;22.50;;;12.40;;
69047;SDS011;56119;50.118;8.642;2024-02-21T07:18:34;21.02;;;12.60;;
69047;SDS011;56119;50.118;8.642;2024-02-21T07:21:00;18.10;;;12.32;;
69047;SDS011;56119;50.118;8.642;2024-02-21T07:23:26;18.60;;;11.27;;
69047;SDS011;56119;50.118;8.642;2024-02-21T07:25:52;20.10;;;11.85;;
69047;SDS011;56119;50.118;8.642;2024-02-21T07:28:18;19.48;;;11.10;;
69047;SDS011;56119;50.118;8.642;2024-02-21T07:30:44;22.90;;;10.88;;
69047;SDS011;56119;50.118;8.642;2024-02-21T07:33:10;21.92;;;10.27;;
69047;SDS011;56119;50.118;8.642;2024-02-21T07:35:36;24.02;;;10.27;;
69047;SDS011;56119;50.118;8.642;2024-02-21T07:38:06;19.05;;;9.60;;
69047;SDS011;56119;50.118;8.642;2024-02-21T07:40:37;18.15;;;9.02;;
69047;SDS011;56119;50.118;8.642;2024-02-21T07:43:03;16.33;;;9.60;;
69047;SDS011;56119;50.118;8.642;2024-02-21T07:45:29;19.95;;;9.07;;
69047;SDS011;56119;50.118;8.642;2024-02-21T07:47:55;17.60;;;9.60;;
69047;SDS011;56119;50.118;8.642;2024-02-21T07:50:21;16.00;;;8.70;;
69047;SDS011;56119;50.118;8.642;2024-02-21T07:52:47;18.60;;;9.52;;
69047;SDS011;56119;50.118;8.642;2024-02-21T07:55:13;20.05;;;9.25;;
69047;SDS011;56119;50.118;8.642;2024-02-21T07:57:39;19.67;;;8.00;;
69047;SDS011;56119;50.118;8.642;2024-02-21T08:00:05;17.30;;;8.93;;
69047;SDS011;56119;50.118;8.642;2024-02-21T08:02:33;17.52;;;8.13;;
69047;SDS011;56119;50.118;8.642;2024-02-21T08:04:59;18.17;;;8.30;;
69047;SDS011;56119;50.118;8.642;2024-02-21T08:07:25;18.13;;;8.52;;
69047;SDS011;56119;50.118;8.642;2024-02-21T08:09:54;17.25;;;8.35;;
69047;SDS011;56119;50.118;8.642;2024-02-21T08:12:19;17.25;;;8.45;;
69047;SDS011;56119;50.118;8.642;2024-02-21T08:14:45;17.35;;;8.07;;
69047;SDS011;56119;50.118;8.642;2024-02-21T08:17:11;15.75;;;7.63;;
69047;SDS011;56119;50.118;8.642;2024-02-21T08:19:37;18.63;;;8.30;;
69047;SDS011;56119;50.118;8.642;2024-02-21T08:22:03;18.55;;;7.70;;
69047;SDS011;56119;50.118;8.642;2024-02-21T08:24:29;14.88;;;7.30;;
69047;SDS011;56119;50.118;8.642;2024-02-21T08:26:55;13.70;;;6.78;;
69047;SDS011;56119;50.118;8.642;2024-02-21T08:29:21;14.05;;;7.55;;
69047;SDS011;56119;50.118;8.642;2024-02-21T08:31:47;13.88;;;6.15;;
69047;SDS011;56119;50.118;8.642;2024-02-21T08:34:13;14.35;;;7.07;;
69047;SDS011;56119;50.118;8.642;2024-02-21T08:36:39;16.10;;;6.70;;
69047;SDS011;56119;50.118;8.642;2024-02-21T08:39:05;14.70;;;6.97;;
69047;SDS011;56119;50.118;8.642;2024-02-21T08:41:34;13.90;;;6.90;;
69047;SDS011;56119;50.118;8.642;2024-02-21T08:44:00;13.68;;;6.53;;
69047;SDS011;56119;50.118;8.642;2024-02-21T08:46:26;12.43;;;6.60;;
69047;SDS011;56119;50.118;8.642;2024-02-21T08:48:53;16.52;;;7.50;;
69047;SDS011;56119;50.118;8.642;2024-02-21T08:51:19;12.95;;;6.72;;
69047;SDS011;56119;50.118;8.642;2024-02-21T08:53:46;14.07;;;6.45;;
69047;SDS011;56119;50.118;8.642;2024-02-21T08:56:12;15.93;;;6.20;;
69047;SDS011;56119;50.118;8.642;2024-02-21T08:58:39;14.88;;;6.35;;
69047;SDS011;56119;50.118;8.642;2024-02-21T09:01:05;11.88;;;6.15;;
69047;SDS011;56119;50.118;8.642;2024-02-21T09:03:34;15.23;;;6.50;;
69047;SDS011;56119;50.118;8.642;2024-02-21T09:06:01;12.55;;;6.30;;
69047;SDS011;56119;50.118;8.642;2024-02-21T09:08:27;15.23;;;6.18;;
69047;SDS011;56119;50.118;8.642;2024-02-21T09:10:53;13.43;;;6.22;;
69047;SDS011;56119;50.118;8.642;2024-02-21T09:13:19;10.25;;;5.88;;
69047;SDS011;56119;50.118;8.642;2024-02-21T09:15:45;13.68;;;6.10;;
69047;SDS011;56119;50.118;8.642;2024-02-21T09:18:11;15.70;;;6.47;;
69047;SDS011;56119;50.118;8.642;2024-02-21T09:20:37;12.13;;;6.30;;
69047;SDS011;56119;50.118;8.642;2024-02-21T09:23:03;16.17;;;6.32;;
69047;SDS011;56119;50.118;8.642;2024-02-21T09:25:29;13.07;;;5.95;;
69047;SDS011;56119;50.118;8.642;2024-02-21T09:27:56;13.10;;;6.70;;
69047;SDS011;56119;50.118;8.642;2024-02-21T09:30:23;12.20;;;6.10;;
69047;SDS011;56119;50.118;8.642;2024-02-21T09:32:49;13.15;;;6.18;;
69047;SDS011;56119;50.118;8.642;2024-02-21T09:35:15;16.15;;;6.32;;
69047;SDS011;56119;50.118;8.642;2024-02-21T09:37:41;8.88;;;5.80;;
69047;SDS011;56119;50.118;8.642;2024-02-21T09:40:07;10.88;;;5.63;;
69047;SDS011;56119;50.118;8.642;2024-02-21T09:42:37;14.23;;;5.95;;
69047;SDS011;56119;50.118;8.642;2024-02-21T09:45:15;10.88;;;5.63;;
69047;SDS011;56119;50.118;8.642;2024-02-21T09:50:20;16.60;;;6.13;;
69047;SDS011;56119;50.118;8.642;2024-02-21T09:52:47;9.18;;;5.53;;
69047;SDS011;56119;50.118;8.642;2024-02-21T09:55:14;9.63;;;5.57;;
69047;SDS011;56119;50.118;8.642;2024-02-21T09:57:40;11.60;;;5.72;;
69047;SDS011;56119;50.118;8.642;2024-02-21T10:00:07;11.27;;;5.20;;
69047;SDS011;56119;50.118;8.642;2024-02-21T10:02:33;12.88;;;5.60;;
69047;SDS011;56119;50.118;8.642;2024-02-21T10:04:59;12.80;;;5.38;;
69047;SDS011;56119;50.118;8.642;2024-02-21T10:07:25;11.75;;;5.07;;
69047;SDS011;56119;50.118;8.642;2024-02-21T10:10:03;10.98;;;5.05;;
69047;SDS011;56119;50.118;8.642;2024-02-21T10:12:29;16.40;;;5.70;;
69047;SDS011;56119;50.118;8.642;2024-02-21T10:17:27;10.57;;;4.40;;
69047;SDS011;56119;50.118;8.642;2024-02-21T10:19:53;18.35;;;5.13;;
69047;SDS011;56119;50.118;8.642;2024-02-21T10:22:19;9.52;;;4.43;;
69047;SDS011;56119;50.118;8.642;2024-02-21T10:24:46;9.57;;;4.53;;
69047;SDS011;56119;50.118;8.642;2024-02-21T10:27:12;9.63;;;4.53;;
69047;SDS011;56119;50.118;8.642;2024-02-21T10:29:38;10.05;;;4.38;;
69047;SDS011;56119;50.118;8.642;2024-02-21T10:32:08;12.57;;;5.00;;
69047;SDS011;56119;50.118;8.642;2024-02-21T10:34:35;9.18;;;4.38;;
69047;SDS011;56119;50.118;8.642;2024-02-21T10:37:04;16.35;;;4.95;;
69047;SDS011;56119;50.118;8.642;2024-02-21T10:39:34;11.25;;;4.88;;
69047;SDS011;56119;50.118;8.642;2024-02-21T10:42:01;10.27;;;4.65;;
69047;SDS011;56119;50.118;8.642;2024-02-21T10:44:29;12.40;;;4.65;;
69047;SDS011;56119;50.118;8.642;2024-02-21T10:46:58;14.95;;;5.13;;
69047;SDS011;56119;50.118;8.642;2024-02-21T10:49:27;9.45;;;4.55;;
69047;SDS011;56119;50.118;8.642;2024-02-21T10:52:06;12.23;;;4.88;;
69047;SDS011;56119;50.118;8.642;2024-02-21T10:57:07;11.77;;;4.95;;
69047;SDS011;56119;50.118;8.642;2024-02-21T10:59:34;10.57;;;5.03;;
69047;SDS011;56119;50.118;8.642;2024-02-21T11:02:03;14.73;;;5.50;;
69047;SDS011;56119;50.118;8.642;2024-02-21T11:04:29;18.33;;;5.78;;
69047;SDS011;56119;50.118;8.642;2024-02-21T11:06:55;15.23;;;5.47;;
69047;SDS011;56119;50.118;8.642;2024-02-21T11:09:29;15.60;;;5.75;;
69047;SDS011;56119;50.118;8.642;2024-02-21T11:11:58;13.10;;;5.72;;
69047;SDS011;56119;50.118;8.642;2024-02-21T11:14:25;15.65;;;5.70;;
69047;SDS011;56119;50.118;8.642;2024-02-21T11:16:51;10.93;;;5.25;;
69047;SDS011;56119;50.118;8.642;2024-02-21T11:19:27;11.88;;;5.30;;
69047;SDS011;56119;50.118;8.642;2024-02-21T11:21:54;13.73;;;6.03;;
69047;SDS011;56119;50.118;8.642;2024-02-21T11:27:19;11.98;;;6.07;;
69047;SDS011;56119;50.118;8.642;2024-02-21T11:29:45;13.40;;;5.63;;
69047;SDS011;56119;50.118;8.642;2024-02-21T11:32:14;14.43;;;5.50;;
69047;SDS011;56119;50.118;8.642;2024-02-21T11:34:41;16.33;;;6.47;;
69047;SDS011;56119;50.118;8.642;2024-02-21T11:37:13;12.27;;;5.55;;
69047;SDS011;56119;50.118;8.642;2024-02-21T11:39:42;11.88;;;5.32;;
69047;SDS011;56119;50.118;8.642;2024-02-21T11:42:08;14.02;;;6.20;;
69047;SDS011;56119;50.118;8.642;2024-02-21T11:44:35;13.65;;;5.53;;
69047;SDS011;56119;50.118;8.642;2024-02-21T11:47:08;9.77;;;5.32;;
69047;SDS011;56119;50.118;8.642;2024-02-21T11:49:36;11.30;;;5.43;;
69047;SDS011;56119;50.118;8.642;2024-02-21T11:52:03;12.05;;;5.18;;
69047;SDS011;56119;50.118;8.642;2024-02-21T11:54:29;11.80;;;5.43;;
69047;SDS011;56119;50.118;8.642;2024-02-21T11:56:55;12.40;;;4.60;;
69047;SDS011;56119;50.118;8.642;2024-02-21T11:59:21;10.35;;;5.80;;
69047;SDS011;56119;50.118;8.642;2024-02-21T12:01:50;15.13;;;5.57;;
69047;SDS011;56119;50.118;8.642;2024-02-21T12:04:17;15.35;;;6.03;;
69047;SDS011;56119;50.118;8.642;2024-02-21T12:06:44;9.93;;;5.30;;
69047;SDS011;56119;50.118;8.642;2024-02-21T12:09:13;10.32;;;4.97;;
69047;SDS011;56119;50.118;8.642;2024-02-21T12:11:41;13.93;;;5.25;;
69047;SDS011;56119;50.118;8.642;2024-02-21T12:14:07;9.82;;;5.10;;
69047;SDS011;56119;50.118;8.642;2024-02-21T12:16:34;14.60;;;5.40;;
69047;SDS011;56119;50.118;8.642;2024-02-21T12:19:02;13.25;;;5.60;;
69047;SDS011;56119;50.118;8.642;2024-02-21T12:21:31;11.90;;;4.95;;
69047;SDS011;56119;50.118;8.642;2024-02-21T12:23:58;12.40;;;5.30;;
69047;SDS011;56119;50.118;8.642;2024-02-21T12:26:24;11.70;;;5.07;;
69047;SDS011;56119;50.118;8.642;2024-02-21T12:28:51;11.45;;;5.53;;
69047;SDS011;56119;50.118;8.642;2024-02-21T12:31:17;12.73;;;5.43;;
69047;SDS011;56119;50.118;8.642;2024-02-21T12:33:43;10.13;;;4.70;;
69047;SDS011;56119;50.118;8.642;2024-02-21T12:36:09;8.48;;;4.68;;
69047;SDS011;56119;50.118;8.642;2024-02-21T12:38:36;11.05;;;5.63;;
69047;SDS011;56119;50.118;8.642;2024-02-21T12:41:02;14.07;;;5.35;;
69047;SDS011;56119;50.118;8.642;2024-02-21T12:43:28;12.93;;;5.57;;
69047;SDS011;56119;50.118;8.642;2024-02-21T12:45:54;11.27;;;5.15;;
69047;SDS011;56119;50.118;8.642;2024-02-21T12:48:21;12.07;;;5.10;;
69047;SDS011;56119;50.118;8.642;2024-02-21T12:50:48;11.13;;;5.20;;
69047;SDS011;56119;50.118;8.642;2024-02-21T12:53:20;9.48;;;4.75;;
69047;SDS011;56119;50.118;8.642;2024-02-21T12:55:48;13.43;;;4.55;;
69047;SDS011;56119;50.118;8.642;2024-02-21T12:58:14;10.88;;;4.43;;
69047;SDS011;56119;50.118;8.642;2024-02-21T13:00:40;8.90;;;4.30;;
69047;SDS011;56119;50.118;8.642;2024-02-21T13:03:06;13.05;;;4.75;;
69047;SDS011;56119;50.118;8.642;2024-02-21T13:05:34;9.90;;;4.22;;
69047;SDS011;56119;50.118;8.642;2024-02-21T13:08:00;9.18;;;3.92;;
69047;SDS011;56119;50.118;8.642;2024-02-21T13:10:26;10.00;;;4.47;;
69047;SDS011;56119;50.118;8.642;2024-02-21T13:12:52;11.02;;;4.43;;
69047;SDS011;56119;50.118;8.642;2024-02-21T13:15:19;10.45;;;4.45;;
69047;SDS011;56119;50.118;8.642;2024-02-21T13:17:45;10.15;;;4.43;;
69047;SDS011;56119;50.118;8.642;2024-02-21T13:20:11;10.05;;;4.10;;
69047;SDS011;56119;50.118;8.642;2024-02-21T13:22:37;12.88;;;4.38;;
69047;SDS011;56119;50.118;8.642;2024-02-21T13:25:04;7.68;;;4.38;;
69047;SDS011;56119;50.118;8.642;2024-02-21T13:27:32;10.30;;;4.68;;
69047;SDS011;56119;50.118;8.642;2024-02-21T13:29:58;14.75;;;4.80;;
69047;SDS011;56119;50.118;8.642;2024-02-21T13:32:26;11.05;;;4.97;;
69047;SDS011;56119;50.118;8.642;2024-02-21T13:34:52;13.65;;;4.47;;
69047;SDS011;56119;50.118;8.642;2024-02-21T13:37:18;8.65;;;3.83;;
69047;SDS011;56119;50.118;8.642;2024-02-21T13:39:44;13.05;;;4.53;;
69047;SDS011;56119;50.118;8.642;2024-02-21T13:42:11;10.95;;;4.32;;
69047;SDS011;56119;50.118;8.642;2024-02-21T13:44:37;8.15;;;3.85;;
69047;SDS011;56119;50.118;8.642;2024-02-21T13:47:03;13.40;;;4.50;;
69047;SDS011;56119;50.118;8.642;2024-02-21T13:49:30;9.15;;;3.78;;
69047;SDS011;56119;50.118;8.642;2024-02-21T13:51:56;9.20;;;3.47;;
69047;SDS011;56119;50.118;8.642;2024-02-21T13:54:22;12.45;;;4.07;;
69047;SDS011;56119;50.118;8.642;2024-02-21T13:56:48;10.95;;;4.28;;
69047;SDS011;56119;50.118;8.642;2024-02-21T13:59:15;10.27;;;3.80;;
69047;SDS011;56119;50.118;8.642;2024-02-21T14:01:41;9.02;;;4.13;;
69047;SDS011;56119;50.118;8.642;2024-02-21T14:04:07;9.52;;;4.20;;
69047;SDS011;56119;50.118;8.642;2024-02-21T14:06:33;13.35;;;3.63;;
69047;SDS011;56119;50.118;8.642;2024-02-21T14:09:00;11.43;;;3.25;;
69047;SDS011;56119;50.118;8.642;2024-02-21T14:11:26;11.63;;;4.05;;
69047;SDS011;56119;50.118;8.642;2024-02-21T14:13:52;10.63;;;3.75;;
69047;SDS011;56119;50.118;8.642;2024-02-21T14:16:22;8.45;;;3.53;;
69047;SDS011;56119;50.118;8.642;2024-02-21T14:18:48;9.65;;;3.78;;
69047;SDS011;56119;50.118;8.642;2024-02-21T14:21:14;11.00;;;3.63;;
69047;SDS011;56119;50.118;8.642;2024-02-21T14:23:40;8.80;;;4.15;;
69047;SDS011;56119;50.118;8.642;2024-02-21T14:26:06;8.68;;;3.50;;
69047;SDS011;56119;50.118;8.642;2024-02-21T14:28:32;9.52;;;3.40;;
69047;SDS011;56119;50.118;8.642;2024-02-21T14:31:01;11.80;;;4.15;;
69047;SDS011;56119;50.118;8.642;2024-02-21T14:33:28;10.30;;;4.40;;
69047;SDS011;56119;50.118;8.642;2024-02-21T14:35:55;9.52;;;3.45;;
69047;SDS011;56119;50.118;8.642;2024-02-21T14:38:21;10.25;;;3.50;;
69047;SDS011;56119;50.118;8.642;2024-02-21T14:40:47;8.25;;;3.30;;